sensor_id;sensor_type;location;lat;lon;timestamp;pressure;altitude;pressure_sealevel;temperature
68127;BMP180;54931;52.098;21.006;2023-07-20T00:02:14;99504.20;;;15.80
68127;BMP180;54931;52.098;21.006;2023-07-20T00:04:42;99498.00;;;15.80
68127;BMP180;54931;52.098;21.006;2023-07-20T00:07:09;99502.80;;;15.80
68127;BMP180;54931;52.098;21.006;2023-07-20T00:09:37;99497.40;;;15.70
68127;BMP180;54931;52.098;21.006;2023-07-20T00:12:05;99496.00;;;15.70
68127;BMP180;54931;52.098;21.006;2023-07-20T00:14:32;99493.80;;;15.70
68127;BMP180;54931;52.098;21.006;2023-07-20T00:17:00;99485.40;;;15.70
68127;BMP180;54931;52.098;21.006;2023-07-20T00:19:28;99483.80;;;15.70
68127;BMP180;54931;52.098;21.006;2023-07-20T00:21:56;99483.20;;;15.70
68127;BMP180;54931;52.098;21.006;2023-07-20T00:24:23;99478.40;;;15.62
68127;BMP180;54931;52.098;21.006;2023-07-20T00:26:51;99477.60;;;15.60
68127;BMP180;54931;52.098;21.006;2023-07-20T00:29:18;99477.80;;;15.60
68127;BMP180;54931;52.098;21.006;2023-07-20T00:31:45;99475.60;;;15.60
68127;BMP180;54931;52.098;21.006;2023-07-20T00:34:13;99475.60;;;15.54
68127;BMP180;54931;52.098;21.006;2023-07-20T00:36:41;99476.60;;;15.58
68127;BMP180;54931;52.098;21.006;2023-07-20T00:39:08;99477.00;;;15.58
68127;BMP180;54931;52.098;21.006;2023-07-20T00:41:36;99480.00;;;15.50
68127;BMP180;54931;52.098;21.006;2023-07-20T00:44:04;99479.40;;;15.50
68127;BMP180;54931;52.098;21.006;2023-07-20T00:46:32;99487.20;;;15.50
68127;BMP180;54931;52.098;21.006;2023-07-20T00:49:00;99488.80;;;15.50
68127;BMP180;54931;52.098;21.006;2023-07-20T00:51:28;99494.40;;;15.50
68127;BMP180;54931;52.098;21.006;2023-07-20T00:53:56;99497.00;;;15.50
68127;BMP180;54931;52.098;21.006;2023-07-20T00:56:23;99496.20;;;15.50
68127;BMP180;54931;52.098;21.006;2023-07-20T00:58:52;99493.40;;;15.50
68127;BMP180;54931;52.098;21.006;2023-07-20T01:01:19;99487.60;;;15.50
68127;BMP180;54931;52.098;21.006;2023-07-20T01:03:47;99482.60;;;15.60
68127;BMP180;54931;52.098;21.006;2023-07-20T01:09:41;99492.40;;;15.60
68127;BMP180;54931;52.098;21.006;2023-07-20T01:12:30;99499.80;;;15.60
68127;BMP180;54931;52.098;21.006;2023-07-20T01:14:59;99499.00;;;15.60
68127;BMP180;54931;52.098;21.006;2023-07-20T01:17:27;99498.60;;;15.60
68127;BMP180;54931;52.098;21.006;2023-07-20T01:19:54;99494.00;;;15.60
68127;BMP180;54931;52.098;21.006;2023-07-20T01:31:30;99477.80;;;15.60
68127;BMP180;54931;52.098;21.006;2023-07-20T01:34:02;99476.60;;;15.50
68127;BMP180;54931;52.098;21.006;2023-07-20T01:36:36;99469.20;;;15.42
68127;BMP180;54931;52.098;21.006;2023-07-20T01:39:06;99472.00;;;15.40
68127;BMP180;54931;52.098;21.006;2023-07-20T01:41:35;99475.00;;;15.30
68127;BMP180;54931;52.098;21.006;2023-07-20T01:44:04;99478.60;;;15.28
68127;BMP180;54931;52.098;21.006;2023-07-20T01:46:31;99489.40;;;15.20
68127;BMP180;54931;52.098;21.006;2023-07-20T01:48:59;99495.60;;;15.10
68127;BMP180;54931;52.098;21.006;2023-07-20T01:51:26;99500.80;;;15.00
68127;BMP180;54931;52.098;21.006;2023-07-20T01:53:53;99499.40;;;14.90
68127;BMP180;54931;52.098;21.006;2023-07-20T01:56:21;99498.00;;;14.90
68127;BMP180;54931;52.098;21.006;2023-07-20T01:58:49;99497.00;;;14.80
68127;BMP180;54931;52.098;21.006;2023-07-20T02:01:16;99496.80;;;14.80
68127;BMP180;54931;52.098;21.006;2023-07-20T02:03:43;99500.80;;;14.74
68127;BMP180;54931;52.098;21.006;2023-07-20T02:06:11;99495.60;;;14.70
68127;BMP180;54931;52.098;21.006;2023-07-20T02:08:39;99501.40;;;14.70
68127;BMP180;54931;52.098;21.006;2023-07-20T02:11:06;99505.80;;;14.60
68127;BMP180;54931;52.098;21.006;2023-07-20T02:13:33;99510.20;;;14.60
68127;BMP180;54931;52.098;21.006;2023-07-20T02:16:01;99515.00;;;14.60
68127;BMP180;54931;52.098;21.006;2023-07-20T02:18:28;99515.60;;;14.60
68127;BMP180;54931;52.098;21.006;2023-07-20T02:20:55;99510.20;;;14.60
68127;BMP180;54931;52.098;21.006;2023-07-20T02:23:23;99505.00;;;14.60
68127;BMP180;54931;52.098;21.006;2023-07-20T02:25:50;99501.60;;;14.60
68127;BMP180;54931;52.098;21.006;2023-07-20T02:28:18;99498.40;;;14.70
68127;BMP180;54931;52.098;21.006;2023-07-20T02:30:45;99499.80;;;14.70
68127;BMP180;54931;52.098;21.006;2023-07-20T02:33:13;99494.00;;;14.72
68127;BMP180;54931;52.098;21.006;2023-07-20T02:35:41;99487.20;;;14.80
68127;BMP180;54931;52.098;21.006;2023-07-20T02:38:08;99481.60;;;14.80
68127;BMP180;54931;52.098;21.006;2023-07-20T02:40:36;99480.60;;;14.90
68127;BMP180;54931;52.098;21.006;2023-07-20T02:43:03;99478.80;;;14.90
68127;BMP180;54931;52.098;21.006;2023-07-20T02:45:30;99483.40;;;14.90
68127;BMP180;54931;52.098;21.006;2023-07-20T02:47:58;99482.40;;;14.90
68127;BMP180;54931;52.098;21.006;2023-07-20T02:50:25;99479.00;;;15.00
68127;BMP180;54931;52.098;21.006;2023-07-20T02:52:53;99481.80;;;15.00
68127;BMP180;54931;52.098;21.006;2023-07-20T02:55:20;99480.20;;;15.04
68127;BMP180;54931;52.098;21.006;2023-07-20T02:57:47;99482.20;;;15.00
68127;BMP180;54931;52.098;21.006;2023-07-20T03:00:15;99480.00;;;15.10
68127;BMP180;54931;52.098;21.006;2023-07-20T03:02:43;99490.40;;;15.10
68127;BMP180;54931;52.098;21.006;2023-07-20T03:05:10;99490.20;;;15.10
68127;BMP180;54931;52.098;21.006;2023-07-20T03:07:38;99492.20;;;15.10
68127;BMP180;54931;52.098;21.006;2023-07-20T03:10:06;99494.20;;;15.12
68127;BMP180;54931;52.098;21.006;2023-07-20T03:12:36;99492.60;;;15.20
68127;BMP180;54931;52.098;21.006;2023-07-20T03:15:04;99495.60;;;15.20
68127;BMP180;54931;52.098;21.006;2023-07-20T03:17:32;99496.40;;;15.28
68127;BMP180;54931;52.098;21.006;2023-07-20T03:20:00;99493.20;;;15.30
68127;BMP180;54931;52.098;21.006;2023-07-20T03:22:28;99493.00;;;15.30
68127;BMP180;54931;52.098;21.006;2023-07-20T03:24:56;99494.80;;;15.40
68127;BMP180;54931;52.098;21.006;2023-07-20T03:27:23;99496.60;;;15.40
68127;BMP180;54931;52.098;21.006;2023-07-20T03:29:50;99499.60;;;15.40
68127;BMP180;54931;52.098;21.006;2023-07-20T03:32:18;99507.40;;;15.40
68127;BMP180;54931;52.098;21.006;2023-07-20T03:34:45;99508.80;;;15.40
68127;BMP180;54931;52.098;21.006;2023-07-20T03:37:13;99511.40;;;15.40
68127;BMP180;54931;52.098;21.006;2023-07-20T03:39:41;99512.40;;;15.48
68127;BMP180;54931;52.098;21.006;2023-07-20T03:42:08;99513.60;;;15.50
68127;BMP180;54931;52.098;21.006;2023-07-20T03:44:35;99520.00;;;15.50
68127;BMP180;54931;52.098;21.006;2023-07-20T03:47:03;99526.60;;;15.50
68127;BMP180;54931;52.098;21.006;2023-07-20T03:49:31;99529.80;;;15.60
68127;BMP180;54931;52.098;21.006;2023-07-20T03:52:02;99543.00;;;15.60
68127;BMP180;54931;52.098;21.006;2023-07-20T03:54:30;99552.00;;;15.60
68127;BMP180;54931;52.098;21.006;2023-07-20T03:56:57;99565.40;;;15.60
68127;BMP180;54931;52.098;21.006;2023-07-20T03:59:25;99571.60;;;15.60
68127;BMP180;54931;52.098;21.006;2023-07-20T04:01:52;99577.80;;;15.54
68127;BMP180;54931;52.098;21.006;2023-07-20T04:04:19;99579.20;;;15.50
68127;BMP180;54931;52.098;21.006;2023-07-20T04:06:47;99582.60;;;15.50
68127;BMP180;54931;52.098;21.006;2023-07-20T04:09:14;99585.00;;;15.40
68127;BMP180;54931;52.098;21.006;2023-07-20T04:11:42;99584.40;;;15.40
68127;BMP180;54931;52.098;21.006;2023-07-20T04:14:10;99595.60;;;15.40
68127;BMP180;54931;52.098;21.006;2023-07-20T04:16:37;99604.80;;;15.30
68127;BMP180;54931;52.098;21.006;2023-07-20T04:19:05;99610.20;;;15.30
68127;BMP180;54931;52.098;21.006;2023-07-20T04:21:32;99613.60;;;15.30
68127;BMP180;54931;52.098;21.006;2023-07-20T04:24:00;99620.80;;;15.26
68127;BMP180;54931;52.098;21.006;2023-07-20T04:26:27;99627.40;;;15.20
68127;BMP180;54931;52.098;21.006;2023-07-20T04:28:55;99629.20;;;15.20
68127;BMP180;54931;52.098;21.006;2023-07-20T04:31:23;99636.60;;;15.16
68127;BMP180;54931;52.098;21.006;2023-07-20T04:33:50;99637.60;;;15.10
68127;BMP180;54931;52.098;21.006;2023-07-20T04:36:18;99637.80;;;15.08
68127;BMP180;54931;52.098;21.006;2023-07-20T04:38:46;99625.80;;;15.00
68127;BMP180;54931;52.098;21.006;2023-07-20T04:41:14;99628.40;;;15.00
68127;BMP180;54931;52.098;21.006;2023-07-20T04:43:42;99628.80;;;15.00
68127;BMP180;54931;52.098;21.006;2023-07-20T04:46:11;99630.40;;;14.90
68127;BMP180;54931;52.098;21.006;2023-07-20T04:48:38;99632.60;;;14.90
68127;BMP180;54931;52.098;21.006;2023-07-20T04:51:07;99634.80;;;14.90
68127;BMP180;54931;52.098;21.006;2023-07-20T04:53:34;99631.40;;;14.90
68127;BMP180;54931;52.098;21.006;2023-07-20T04:56:02;99640.40;;;14.90
68127;BMP180;54931;52.098;21.006;2023-07-20T04:58:29;99643.00;;;14.90
68127;BMP180;54931;52.098;21.006;2023-07-20T05:00:57;99646.80;;;14.90
68127;BMP180;54931;52.098;21.006;2023-07-20T05:03:24;99644.40;;;14.90
68127;BMP180;54931;52.098;21.006;2023-07-20T05:05:51;99646.60;;;14.90
68127;BMP180;54931;52.098;21.006;2023-07-20T05:08:19;99644.40;;;14.90
68127;BMP180;54931;52.098;21.006;2023-07-20T05:10:46;99649.80;;;14.94
68127;BMP180;54931;52.098;21.006;2023-07-20T05:13:14;99659.60;;;15.00
68127;BMP180;54931;52.098;21.006;2023-07-20T05:15:42;99661.40;;;15.10
68127;BMP180;54931;52.098;21.006;2023-07-20T05:18:09;99659.80;;;15.10
68127;BMP180;54931;52.098;21.006;2023-07-20T05:20:36;99658.60;;;15.10
68127;BMP180;54931;52.098;21.006;2023-07-20T05:23:04;99658.40;;;15.12
68127;BMP180;54931;52.098;21.006;2023-07-20T05:25:31;99655.80;;;15.18
68127;BMP180;54931;52.098;21.006;2023-07-20T05:27:59;99657.40;;;15.20
68127;BMP180;54931;52.098;21.006;2023-07-20T05:30:27;99655.60;;;15.20
68127;BMP180;54931;52.098;21.006;2023-07-20T05:32:56;99662.00;;;15.20
68127;BMP180;54931;52.098;21.006;2023-07-20T05:35:23;99653.80;;;15.24
68127;BMP180;54931;52.098;21.006;2023-07-20T05:37:51;99655.00;;;15.30
68127;BMP180;54931;52.098;21.006;2023-07-20T05:40:18;99650.60;;;15.40
68127;BMP180;54931;52.098;21.006;2023-07-20T05:42:48;99651.80;;;15.50
68127;BMP180;54931;52.098;21.006;2023-07-20T05:45:16;99647.60;;;15.60
68127;BMP180;54931;52.098;21.006;2023-07-20T05:47:44;99651.20;;;15.60
68127;BMP180;54931;52.098;21.006;2023-07-20T05:50:11;99648.00;;;15.70
68127;BMP180;54931;52.098;21.006;2023-07-20T05:52:39;99642.60;;;15.78
68127;BMP180;54931;52.098;21.006;2023-07-20T05:55:08;99644.20;;;15.80
68127;BMP180;54931;52.098;21.006;2023-07-20T05:57:35;99640.80;;;15.80
68127;BMP180;54931;52.098;21.006;2023-07-20T06:00:04;99641.00;;;15.80
68127;BMP180;54931;52.098;21.006;2023-07-20T06:02:34;99637.80;;;15.80
68127;BMP180;54931;52.098;21.006;2023-07-20T06:05:01;99642.20;;;15.72
68127;BMP180;54931;52.098;21.006;2023-07-20T06:07:29;99640.80;;;15.70
68127;BMP180;54931;52.098;21.006;2023-07-20T06:09:56;99640.00;;;15.70
68127;BMP180;54931;52.098;21.006;2023-07-20T06:12:25;99632.20;;;15.70
68127;BMP180;54931;52.098;21.006;2023-07-20T06:14:52;99622.20;;;15.78
68127;BMP180;54931;52.098;21.006;2023-07-20T06:17:20;99625.00;;;15.80
68127;BMP180;54931;52.098;21.006;2023-07-20T06:19:48;99618.00;;;15.80
68127;BMP180;54931;52.098;21.006;2023-07-20T06:22:15;99623.80;;;15.80
68127;BMP180;54931;52.098;21.006;2023-07-20T06:24:42;99617.60;;;15.80
68127;BMP180;54931;52.098;21.006;2023-07-20T06:27:10;99609.60;;;15.80
68127;BMP180;54931;52.098;21.006;2023-07-20T06:29:37;99608.00;;;15.90
68127;BMP180;54931;52.098;21.006;2023-07-20T06:32:06;99600.40;;;16.00
68127;BMP180;54931;52.098;21.006;2023-07-20T06:34:34;99599.60;;;16.00
68127;BMP180;54931;52.098;21.006;2023-07-20T06:37:05;99602.40;;;16.02
68127;BMP180;54931;52.098;21.006;2023-07-20T06:39:32;99603.80;;;16.00
68127;BMP180;54931;52.098;21.006;2023-07-20T06:42:00;99603.40;;;16.10
68127;BMP180;54931;52.098;21.006;2023-07-20T06:44:27;99604.80;;;16.20
68127;BMP180;54931;52.098;21.006;2023-07-20T06:46:55;99603.80;;;16.22
68127;BMP180;54931;52.098;21.006;2023-07-20T06:49:27;99600.00;;;16.20
68127;BMP180;54931;52.098;21.006;2023-07-20T06:51:55;99597.60;;;16.20
68127;BMP180;54931;52.098;21.006;2023-07-20T06:54:22;99595.20;;;16.20
68127;BMP180;54931;52.098;21.006;2023-07-20T06:56:50;99600.40;;;16.20
68127;BMP180;54931;52.098;21.006;2023-07-20T06:59:18;99600.40;;;16.26
68127;BMP180;54931;52.098;21.006;2023-07-20T07:01:45;99598.40;;;16.30
68127;BMP180;54931;52.098;21.006;2023-07-20T07:04:12;99600.60;;;16.40
68127;BMP180;54931;52.098;21.006;2023-07-20T07:06:40;99598.20;;;16.46
68127;BMP180;54931;52.098;21.006;2023-07-20T07:09:08;99599.20;;;16.50
68127;BMP180;54931;52.098;21.006;2023-07-20T07:11:35;99603.40;;;16.46
68127;BMP180;54931;52.098;21.006;2023-07-20T07:14:03;99612.00;;;16.44
68127;BMP180;54931;52.098;21.006;2023-07-20T07:16:30;99615.40;;;16.40
68127;BMP180;54931;52.098;21.006;2023-07-20T07:18:58;99619.20;;;16.40
68127;BMP180;54931;52.098;21.006;2023-07-20T07:21:26;99619.00;;;16.30
68127;BMP180;54931;52.098;21.006;2023-07-20T07:23:53;99621.40;;;16.30
68127;BMP180;54931;52.098;21.006;2023-07-20T07:26:24;99624.60;;;16.30
68127;BMP180;54931;52.098;21.006;2023-07-20T07:28:51;99625.60;;;16.30
68127;BMP180;54931;52.098;21.006;2023-07-20T07:31:19;99630.60;;;16.40
68127;BMP180;54931;52.098;21.006;2023-07-20T07:33:46;99627.60;;;16.38
68127;BMP180;54931;52.098;21.006;2023-07-20T07:36:13;99629.00;;;16.40
68127;BMP180;54931;52.098;21.006;2023-07-20T07:38:41;99633.60;;;16.40
68127;BMP180;54931;52.098;21.006;2023-07-20T07:41:09;99632.40;;;16.38
68127;BMP180;54931;52.098;21.006;2023-07-20T07:43:37;99631.40;;;16.40
68127;BMP180;54931;52.098;21.006;2023-07-20T07:46:06;99638.40;;;16.40
68127;BMP180;54931;52.098;21.006;2023-07-20T07:48:33;99638.00;;;16.40
68127;BMP180;54931;52.098;21.006;2023-07-20T07:51:00;99644.60;;;16.40
68127;BMP180;54931;52.098;21.006;2023-07-20T07:53:28;99648.20;;;16.40
68127;BMP180;54931;52.098;21.006;2023-07-20T07:55:55;99646.80;;;16.40
68127;BMP180;54931;52.098;21.006;2023-07-20T07:58:23;99650.60;;;16.40
68127;BMP180;54931;52.098;21.006;2023-07-20T08:00:51;99653.20;;;16.40
68127;BMP180;54931;52.098;21.006;2023-07-20T08:03:18;99658.20;;;16.40
68127;BMP180;54931;52.098;21.006;2023-07-20T08:05:46;99657.40;;;16.40
68127;BMP180;54931;52.098;21.006;2023-07-20T08:08:13;99660.40;;;16.40
68127;BMP180;54931;52.098;21.006;2023-07-20T08:10:40;99662.60;;;16.40
68127;BMP180;54931;52.098;21.006;2023-07-20T08:13:08;99664.80;;;16.40
68127;BMP180;54931;52.098;21.006;2023-07-20T08:15:35;99669.40;;;16.40
68127;BMP180;54931;52.098;21.006;2023-07-20T08:18:05;99673.80;;;16.40
68127;BMP180;54931;52.098;21.006;2023-07-20T08:20:33;99679.00;;;16.40
68127;BMP180;54931;52.098;21.006;2023-07-20T08:23:02;99679.60;;;16.40
68127;BMP180;54931;52.098;21.006;2023-07-20T08:25:30;99679.60;;;16.40
68127;BMP180;54931;52.098;21.006;2023-07-20T08:27:57;99678.00;;;16.40
68127;BMP180;54931;52.098;21.006;2023-07-20T08:30:25;99679.40;;;16.50
68127;BMP180;54931;52.098;21.006;2023-07-20T08:32:52;99688.20;;;16.60
68127;BMP180;54931;52.098;21.006;2023-07-20T08:35:19;99689.60;;;16.70
68127;BMP180;54931;52.098;21.006;2023-07-20T08:37:47;99684.60;;;16.80
68127;BMP180;54931;52.098;21.006;2023-07-20T08:40:14;99686.80;;;17.00
68127;BMP180;54931;52.098;21.006;2023-07-20T08:42:42;99690.00;;;17.10
68127;BMP180;54931;52.098;21.006;2023-07-20T08:45:12;99696.00;;;17.26
68127;BMP180;54931;52.098;21.006;2023-07-20T08:47:42;99696.20;;;17.30
68127;BMP180;54931;52.098;21.006;2023-07-20T08:50:12;99696.40;;;17.40
68127;BMP180;54931;52.098;21.006;2023-07-20T08:52:41;99698.40;;;17.40
68127;BMP180;54931;52.098;21.006;2023-07-20T08:55:08;99700.20;;;17.50
68127;BMP180;54931;52.098;21.006;2023-07-20T08:57:38;99704.00;;;17.50
68127;BMP180;54931;52.098;21.006;2023-07-20T09:00:10;99704.00;;;17.52
68127;BMP180;54931;52.098;21.006;2023-07-20T09:02:42;99705.20;;;17.50
68127;BMP180;54931;52.098;21.006;2023-07-20T09:05:12;99710.00;;;17.54
68127;BMP180;54931;52.098;21.006;2023-07-20T09:07:43;99717.40;;;17.60
68127;BMP180;54931;52.098;21.006;2023-07-20T09:10:13;99717.80;;;17.70
68127;BMP180;54931;52.098;21.006;2023-07-20T09:12:43;99722.80;;;17.70
68127;BMP180;54931;52.098;21.006;2023-07-20T09:15:12;99721.60;;;17.80
68127;BMP180;54931;52.098;21.006;2023-07-20T09:17:46;99723.40;;;17.90
68127;BMP180;54931;52.098;21.006;2023-07-20T09:20:17;99724.80;;;17.90
68127;BMP180;54931;52.098;21.006;2023-07-20T09:22:46;99726.00;;;18.00
68127;BMP180;54931;52.098;21.006;2023-07-20T09:25:18;99723.80;;;18.00
68127;BMP180;54931;52.098;21.006;2023-07-20T09:27:49;99720.40;;;18.10
68127;BMP180;54931;52.098;21.006;2023-07-20T09:30:17;99721.80;;;18.10
68127;BMP180;54931;52.098;21.006;2023-07-20T09:32:48;99724.60;;;18.18
68127;BMP180;54931;52.098;21.006;2023-07-20T09:35:20;99726.20;;;18.40
68127;BMP180;54931;52.098;21.006;2023-07-20T09:38:01;99730.00;;;18.70
68127;BMP180;54931;52.098;21.006;2023-07-20T09:40:30;99732.80;;;18.90
68127;BMP180;54931;52.098;21.006;2023-07-20T09:42:59;99729.00;;;19.00
68127;BMP180;54931;52.098;21.006;2023-07-20T09:45:35;99729.00;;;19.30
68127;BMP180;54931;52.098;21.006;2023-07-20T09:48:07;99732.20;;;19.80
68127;BMP180;54931;52.098;21.006;2023-07-20T09:50:43;99730.00;;;20.20
68127;BMP180;54931;52.098;21.006;2023-07-20T09:53:12;99731.40;;;20.20
68127;BMP180;54931;52.098;21.006;2023-07-20T09:55:44;99732.20;;;20.10
68127;BMP180;54931;52.098;21.006;2023-07-20T09:58:12;99736.00;;;20.00
68127;BMP180;54931;52.098;21.006;2023-07-20T10:00:41;99737.80;;;19.98
68127;BMP180;54931;52.098;21.006;2023-07-20T10:03:19;99736.20;;;19.80
68127;BMP180;54931;52.098;21.006;2023-07-20T10:05:54;99738.20;;;19.80
68127;BMP180;54931;52.098;21.006;2023-07-20T10:08:25;99740.00;;;19.70
68127;BMP180;54931;52.098;21.006;2023-07-20T10:10:53;99740.20;;;19.70
68127;BMP180;54931;52.098;21.006;2023-07-20T10:13:32;99738.80;;;19.80
68127;BMP180;54931;52.098;21.006;2023-07-20T10:16:17;99734.60;;;19.88
68127;BMP180;54931;52.098;21.006;2023-07-20T10:19:05;99732.80;;;20.02
68127;BMP180;54931;52.098;21.006;2023-07-20T10:21:39;99734.40;;;20.30
68127;BMP180;54931;52.098;21.006;2023-07-20T10:24:08;99732.40;;;20.20
68127;BMP180;54931;52.098;21.006;2023-07-20T10:26:37;99734.80;;;20.10
68127;BMP180;54931;52.098;21.006;2023-07-20T10:29:05;99731.60;;;20.10
68127;BMP180;54931;52.098;21.006;2023-07-20T10:31:34;99725.80;;;20.10
68127;BMP180;54931;52.098;21.006;2023-07-20T10:34:03;99723.40;;;20.00
68127;BMP180;54931;52.098;21.006;2023-07-20T10:36:31;99720.60;;;19.96
68127;BMP180;54931;52.098;21.006;2023-07-20T10:38:59;99722.80;;;19.90
68127;BMP180;54931;52.098;21.006;2023-07-20T10:41:34;99724.20;;;19.78
68127;BMP180;54931;52.098;21.006;2023-07-20T10:44:07;99722.80;;;19.80
68127;BMP180;54931;52.098;21.006;2023-07-20T10:46:45;99722.80;;;19.90
68127;BMP180;54931;52.098;21.006;2023-07-20T10:49:14;99717.80;;;20.00
68127;BMP180;54931;52.098;21.006;2023-07-20T10:51:47;99715.00;;;20.10
68127;BMP180;54931;52.098;21.006;2023-07-20T10:56:49;99713.00;;;20.48
68127;BMP180;54931;52.098;21.006;2023-07-20T10:59:40;99710.40;;;20.88
68127;BMP180;54931;52.098;21.006;2023-07-20T11:02:10;99712.80;;;21.42
68127;BMP180;54931;52.098;21.006;2023-07-20T11:04:39;99710.00;;;21.70
68127;BMP180;54931;52.098;21.006;2023-07-20T11:07:09;99707.80;;;21.90
68127;BMP180;54931;52.098;21.006;2023-07-20T11:09:38;99712.00;;;22.14
68127;BMP180;54931;52.098;21.006;2023-07-20T11:12:14;99711.60;;;22.50
68127;BMP180;54931;52.098;21.006;2023-07-20T11:15:03;99711.40;;;22.80
68127;BMP180;54931;52.098;21.006;2023-07-20T11:17:32;99716.20;;;22.50
68127;BMP180;54931;52.098;21.006;2023-07-20T11:20:01;99711.40;;;22.30
68127;BMP180;54931;52.098;21.006;2023-07-20T11:22:33;99711.00;;;22.10
68127;BMP180;54931;52.098;21.006;2023-07-20T11:25:01;99710.00;;;22.00
68127;BMP180;54931;52.098;21.006;2023-07-20T11:27:29;99713.00;;;21.86
68127;BMP180;54931;52.098;21.006;2023-07-20T11:29:56;99711.60;;;21.62
68127;BMP180;54931;52.098;21.006;2023-07-20T11:32:24;99704.00;;;21.60
68127;BMP180;54931;52.098;21.006;2023-07-20T11:34:51;99698.80;;;21.70
68127;BMP180;54931;52.098;21.006;2023-07-20T11:37:19;99696.20;;;21.84
68127;BMP180;54931;52.098;21.006;2023-07-20T11:39:46;99693.60;;;22.06
68127;BMP180;54931;52.098;21.006;2023-07-20T11:42:14;99700.40;;;22.20
68127;BMP180;54931;52.098;21.006;2023-07-20T11:44:42;99694.20;;;22.10
68127;BMP180;54931;52.098;21.006;2023-07-20T11:47:12;99695.00;;;22.10
68127;BMP180;54931;52.098;21.006;2023-07-20T11:49:44;99685.60;;;22.20
68127;BMP180;54931;52.098;21.006;2023-07-20T11:52:16;99687.00;;;22.60
68127;BMP180;54931;52.098;21.006;2023-07-20T11:54:45;99688.20;;;23.06
68127;BMP180;54931;52.098;21.006;2023-07-20T11:57:17;99689.20;;;23.18
68127;BMP180;54931;52.098;21.006;2023-07-20T11:59:55;99692.40;;;23.10
68127;BMP180;54931;52.098;21.006;2023-07-20T12:02:29;99690.40;;;22.84
68127;BMP180;54931;52.098;21.006;2023-07-20T12:04:58;99688.20;;;22.50
68127;BMP180;54931;52.098;21.006;2023-07-20T12:07:28;99690.20;;;22.50
68127;BMP180;54931;52.098;21.006;2023-07-20T12:10:12;99685.60;;;22.50
68127;BMP180;54931;52.098;21.006;2023-07-20T12:12:43;99685.40;;;22.52
68127;BMP180;54931;52.098;21.006;2023-07-20T12:15:15;99696.60;;;22.30
68127;BMP180;54931;52.098;21.006;2023-07-20T12:17:49;99696.60;;;22.30
68127;BMP180;54931;52.098;21.006;2023-07-20T12:20:32;99697.20;;;22.20
68127;BMP180;54931;52.098;21.006;2023-07-20T12:23:10;99696.20;;;22.00
68127;BMP180;54931;52.098;21.006;2023-07-20T12:25:43;99692.40;;;22.06
68127;BMP180;54931;52.098;21.006;2023-07-20T12:28:19;99693.20;;;22.20
68127;BMP180;54931;52.098;21.006;2023-07-20T12:30:47;99689.00;;;22.30
68127;BMP180;54931;52.098;21.006;2023-07-20T12:33:24;99687.40;;;22.50
68127;BMP180;54931;52.098;21.006;2023-07-20T12:35:52;99686.20;;;22.72
68127;BMP180;54931;52.098;21.006;2023-07-20T12:38:25;99689.80;;;23.08
68127;BMP180;54931;52.098;21.006;2023-07-20T12:40:54;99692.20;;;23.00
68127;BMP180;54931;52.098;21.006;2023-07-20T12:43:22;99687.00;;;23.24
68127;BMP180;54931;52.098;21.006;2023-07-20T12:45:50;99691.20;;;23.40
68127;BMP180;54931;52.098;21.006;2023-07-20T12:48:18;99688.40;;;23.20
68127;BMP180;54931;52.098;21.006;2023-07-20T12:50:46;99685.60;;;22.96
68127;BMP180;54931;52.098;21.006;2023-07-20T12:53:14;99688.20;;;22.60
68127;BMP180;54931;52.098;21.006;2023-07-20T12:55:42;99685.20;;;22.40
68127;BMP180;54931;52.098;21.006;2023-07-20T12:58:11;99682.60;;;22.30
68127;BMP180;54931;52.098;21.006;2023-07-20T13:00:39;99679.80;;;22.20
68127;BMP180;54931;52.098;21.006;2023-07-20T13:03:07;99676.80;;;22.20
68127;BMP180;54931;52.098;21.006;2023-07-20T13:05:36;99670.20;;;22.30
68127;BMP180;54931;52.098;21.006;2023-07-20T13:08:03;99666.60;;;22.30
68127;BMP180;54931;52.098;21.006;2023-07-20T13:10:32;99656.00;;;22.20
68127;BMP180;54931;52.098;21.006;2023-07-20T13:13:00;99659.40;;;22.00
68127;BMP180;54931;52.098;21.006;2023-07-20T13:15:32;99651.40;;;21.90
68127;BMP180;54931;52.098;21.006;2023-07-20T13:18:00;99635.00;;;21.84
68127;BMP180;54931;52.098;21.006;2023-07-20T13:20:28;99637.20;;;21.96
68127;BMP180;54931;52.098;21.006;2023-07-20T13:22:57;99631.40;;;22.10
68127;BMP180;54931;52.098;21.006;2023-07-20T13:25:25;99629.40;;;22.26
68127;BMP180;54931;52.098;21.006;2023-07-20T13:27:52;99624.20;;;22.54
68127;BMP180;54931;52.098;21.006;2023-07-20T13:30:20;99619.00;;;22.96
68127;BMP180;54931;52.098;21.006;2023-07-20T13:32:48;99627.40;;;23.10
68127;BMP180;54931;52.098;21.006;2023-07-20T13:35:16;99629.20;;;23.16
68127;BMP180;54931;52.098;21.006;2023-07-20T13:37:43;99630.80;;;23.40
68127;BMP180;54931;52.098;21.006;2023-07-20T13:40:11;99635.20;;;23.60
68127;BMP180;54931;52.098;21.006;2023-07-20T13:42:40;99644.80;;;23.70
68127;BMP180;54931;52.098;21.006;2023-07-20T13:45:08;99650.60;;;23.70
68127;BMP180;54931;52.098;21.006;2023-07-20T13:47:36;99648.40;;;23.60
68127;BMP180;54931;52.098;21.006;2023-07-20T13:50:04;99652.20;;;23.40
68127;BMP180;54931;52.098;21.006;2023-07-20T13:52:32;99652.60;;;23.00
68127;BMP180;54931;52.098;21.006;2023-07-20T13:54:59;99652.00;;;22.70
68127;BMP180;54931;52.098;21.006;2023-07-20T13:57:27;99658.60;;;22.60
68127;BMP180;54931;52.098;21.006;2023-07-20T13:59:54;99661.60;;;22.58
68127;BMP180;54931;52.098;21.006;2023-07-20T14:02:22;99673.00;;;22.60
68127;BMP180;54931;52.098;21.006;2023-07-20T14:04:49;99672.60;;;22.50
68127;BMP180;54931;52.098;21.006;2023-07-20T14:07:17;99670.40;;;22.44
68127;BMP180;54931;52.098;21.006;2023-07-20T14:09:44;99673.20;;;22.50
68127;BMP180;54931;52.098;21.006;2023-07-20T14:12:11;99678.60;;;22.40
68127;BMP180;54931;52.098;21.006;2023-07-20T14:14:41;99679.40;;;22.32
68127;BMP180;54931;52.098;21.006;2023-07-20T14:17:08;99668.40;;;22.30
68127;BMP180;54931;52.098;21.006;2023-07-20T14:19:37;99673.40;;;22.20
68127;BMP180;54931;52.098;21.006;2023-07-20T14:22:05;99676.60;;;22.12